Time;durP1;ratioP1;P1;durP2;ratioP2;P2;SDS_P1;SDS_P2;PMS_P1;PMS_P2;Temp;Humidity;BMP_temperature;BMP_pressure;BME280_temperature;BME280_humidity;BME280_pressure;Samples;Min_cycle;Max_cycle;Signal;HPM_P1;HPM_P2
2021/06/27 00:00:38;;;;;;;145.73;57.97;;;;;;;15.80;100.00;102000.13;4993915;28;20034;-57
2021/06/27 00:03:05;;;;;;;145.40;57.27;;;;;;;15.77;100.00;102000.28;4990801;28;20025;-56
2021/06/27 00:05:32;;;;;;;130.90;49.27;;;;;;;15.77;100.00;101999.44;4994153;28;20303;-57
2021/06/27 00:07:58;;;;;;;117.67;47.20;;;;;;;15.67;100.00;101993.66;4990538;28;20281;-56
2021/06/27 00:10:26;;;;;;;135.23;51.90;;;;;;;15.64;100.00;102000.06;4990484;28;20364;-58
2021/06/27 00:12:52;;;;;;;142.10;54.27;;;;;;;15.71;100.00;101999.75;4992867;28;20447;-60
2021/06/27 00:15:21;;;;;;;142.75;53.92;;;;;;;15.65;100.00;101993.72;4994658;28;20701;-58
2021/06/27 00:17:47;;;;;;;113.33;46.50;;;;;;;15.56;100.00;101991.53;4994662;28;20037;-58
2021/06/27 00:20:17;;;;;;;127.93;51.08;;;;;;;15.54;100.00;101985.38;4988434;28;20296;-56
2021/06/27 00:22:43;;;;;;;128.57;48.80;;;;;;;15.53;100.00;101978.25;4996622;28;20705;-57
2021/06/27 00:25:10;;;;;;;133.80;52.88;;;;;;;15.47;100.00;101982.16;4991282;28;20375;-57
2021/06/27 00:27:39;;;;;;;146.23;56.40;;;;;;;15.51;100.00;101985.53;4992399;28;20125;-58
2021/06/27 00:30:05;;;;;;;150.07;56.13;;;;;;;15.56;100.00;101986.16;4994118;28;20353;-58
2021/06/27 00:32:31;;;;;;;150.17;55.67;;;;;;;15.50;100.00;101983.78;4992327;28;20312;-56
2021/06/27 00:34:57;;;;;;;137.32;52.90;;;;;;;15.50;100.00;101976.63;4993179;28;20297;-58
2021/06/27 00:37:22;;;;;;;122.00;47.72;;;;;;;15.48;100.00;101978.50;4986838;28;20301;-57
2021/06/27 00:39:48;;;;;;;128.20;49.55;;;;;;;15.47;100.00;101982.16;4992831;28;20026;-56
2021/06/27 00:42:13;;;;;;;128.10;51.58;;;;;;;15.43;100.00;101987.75;4994710;28;20040;-58
2021/06/27 00:44:38;;;;;;;136.15;50.90;;;;;;;15.37;100.00;101986.25;4993234;28;20514;-58
2021/06/27 00:47:04;;;;;;;130.32;49.97;;;;;;;15.33;100.00;101988.25;4992994;28;20026;-59
2021/06/27 00:49:29;;;;;;;115.25;44.70;;;;;;;15.25;100.00;101982.38;4993766;28;20200;-58
2021/06/27 00:51:55;;;;;;;121.35;48.25;;;;;;;15.22;100.00;101982.56;4996842;28;20553;-58
2021/06/27 00:54:20;;;;;;;131.40;50.53;;;;;;;15.26;100.00;101989.50;4991238;28;20049;-56
2021/06/27 00:56:46;;;;;;;116.03;44.22;;;;;;;15.20;100.00;101984.47;4992810;28;20044;-58
2021/06/27 00:59:12;;;;;;;146.18;55.05;;;;;;;15.21;100.00;101980.81;4995772;28;20030;-57
2021/06/27 01:01:37;;;;;;;154.00;55.50;;;;;;;15.22;100.00;101977.19;4994434;28;20030;-58
2021/06/27 01:04:03;;;;;;;167.05;59.58;;;;;;;15.24;100.00;101975.31;4989772;28;20319;-58
2021/06/27 01:06:28;;;;;;;152.68;55.70;;;;;;;15.22;100.00;101971.81;4990881;28;20040;-57
2021/06/27 01:08:55;;;;;;;140.82;54.35;;;;;;;15.21;100.00;101964.69;4992771;28;20081;-58
2021/06/27 01:11:20;;;;;;;159.40;58.03;;;;;;;15.16;100.00;101972.16;4988997;28;20123;-57
2021/06/27 01:13:46;;;;;;;159.70;58.20;;;;;;;15.18;100.00;101967.53;4994050;28;20386;-57
2021/06/27 01:16:12;;;;;;;139.60;52.25;;;;;;;15.17;100.00;101969.38;4989813;28;20029;-58
2021/06/27 01:18:37;;;;;;;144.80;54.55;;;;;;;15.15;100.00;101970.41;4989374;28;20505;-59
2021/06/27 01:21:07;;;;;;;149.38;55.47;;;;;;;15.13;100.00;101966.91;4991051;28;20033;-57
2021/06/27 01:23:33;;;;;;;146.47;55.17;;;;;;;15.10;100.00;101973.31;4989360;28;20045;-58
2021/06/27 01:25:58;;;;;;;145.75;58.42;;;;;;;15.13;100.00;101964.22;4994856;28;20722;-58
2021/06/27 01:28:24;;;;;;;149.90;57.47;;;;;;;15.12;100.00;101958.00;4987164;28;20088;-57
2021/06/27 01:30:50;;;;;;;133.35;53.90;;;;;;;15.11;100.00;101958.06;4994883;28;20045;-58
2021/06/27 01:33:17;;;;;;;;;;;;;;;15.09;100.00;101959.97;4992717;28;20698;-58
2021/06/27 01:35:44;;;;;;;131.50;54.37;;;;;;;15.08;100.00;101950.16;4994697;28;19906;-56
2021/06/27 01:38:11;;;;;;;125.30;53.20;;;;;;;15.04;100.00;101953.00;4996306;28;20625;-56
2021/06/27 01:40:36;;;;;;;155.57;60.53;;;;;;;14.97;100.00;101946.19;5010457;28;20313;-57
2021/06/27 01:43:14;;;;;;;128.23;50.65;;;;;;;14.93;100.00;101950.00;4993762;28;20400;-59
2021/06/27 01:45:51;;;;;;;133.70;54.20;;;;;;;14.96;100.00;101955.22;4994322;28;20339;-58
2021/06/27 01:48:17;;;;;;;130.40;50.25;;;;;;;14.90;100.00;101949.31;4997214;28;20645;-57
2021/06/27 01:50:44;;;;;;;137.13;55.58;;;;;;;14.93;100.00;101950.00;4992751;28;20065;-56
2021/06/27 01:53:12;;;;;;;152.37;55.83;;;;;;;14.93;100.00;101954.50;4997708;28;20168;-56
2021/06/27 01:55:38;;;;;;;169.13;63.23;;;;;;;14.90;100.00;101950.16;4996728;28;20288;-56
2021/06/27 01:58:03;;;;;;;130.23;50.75;;;;;;;14.87;100.00;101956.56;4999119;28;20276;-57
2021/06/27 02:00:30;;;;;;;146.02;54.05;;;;;;;14.81;100.00;101951.50;5007876;28;20040;-58
2021/06/27 02:02:56;;;;;;;125.17;50.43;;;;;;;14.77;100.00;101946.38;4995215;28;20030;-58
2021/06/27 02:05:22;;;;;;;170.10;63.20;;;;;;;14.82;100.00;101950.56;4996887;28;20339;-57
2021/06/27 02:07:47;;;;;;;160.07;58.33;;;;;;;14.83;100.00;101954.09;4992699;28;20360;-57
2021/06/27 02:10:17;;;;;;;169.95;62.45;;;;;;;14.78;100.00;101948.09;4995500;28;20045;-57
2021/06/27 02:12:43;;;;;;;156.43;55.50;;;;;;;14.74;100.00;101943.81;4993437;28;20034;-57
2021/06/27 02:15:09;;;;;;;188.32;64.55;;;;;;;14.72;100.00;101942.06;4998610;28;20335;-57
2021/06/27 02:17:38;;;;;;;150.57;55.37;;;;;;;14.75;100.00;101945.56;4993455;28;20048;-55
2021/06/27 02:20:06;;;;;;;171.53;60.47;;;;;;;14.71;100.00;101944.84;4996040;28;20376;-56
2021/06/27 02:22:31;;;;;;;159.47;56.63;;;;;;;14.68;100.00;101956.63;4998336;28;20653;-56
2021/06/27 02:24:56;;;;;;;177.52;59.83;;;;;;;14.65;100.00;101954.03;4992868;28;20292;-56
2021/06/27 02:27:22;;;;;;;172.20;59.95;;;;;;;14.65;100.00;101956.72;4997219;28;20119;-59
2021/06/27 02:29:47;;;;;;;177.30;60.38;;;;;;;14.64;100.00;101954.13;4998712;28;20092;-56
2021/06/27 02:32:13;;;;;;;173.93;59.63;;;;;;;14.66;100.00;101954.97;4995559;28;20057;-57
2021/06/27 02:34:38;;;;;;;178.07;60.78;;;;;;;14.66;100.00;101953.13;4991059;28;20612;-57
2021/06/27 02:37:04;;;;;;;189.80;64.93;;;;;;;14.62;100.00;101954.22;4995513;28;20042;-55
2021/06/27 02:39:29;;;;;;;186.18;58.88;;;;;;;14.62;100.00;101951.53;4996496;28;20037;-55
2021/06/27 02:41:54;;;;;;;188.80;60.10;;;;;;;14.61;100.00;101955.16;4992339;28;20045;-58
2021/06/27 02:44:20;;;;;;;155.02;55.85;;;;;;;14.59;100.00;101951.66;4996490;28;20036;-57
2021/06/27 02:46:45;;;;;;;142.98;54.15;;;;;;;14.58;100.00;101952.59;4994999;28;20041;-56
2021/06/27 02:49:11;;;;;;;169.15;60.67;;;;;;;14.57;100.00;101948.19;4992769;28;20445;-57
2021/06/27 02:51:36;;;;;;;162.25;56.63;;;;;;;14.55;100.00;101950.94;4996036;28;20022;-59
2021/06/27 02:54:02;;;;;;;203.95;67.18;;;;;;;14.61;100.00;101949.78;4997201;28;20030;-56
2021/06/27 02:56:27;;;;;;;194.80;64.63;;;;;;;14.62;100.00;101946.16;4993708;28;20417;-57
2021/06/27 02:58:53;;;;;;;195.27;62.50;;;;;;;14.63;100.00;101937.16;4990382;28;20109;-57
2021/06/27 03:01:19;;;;;;;203.80;65.88;;;;;;;14.61;100.00;101936.34;4996790;28;20367;-57
2021/06/27 03:03:46;;;;;;;182.82;60.17;;;;;;;14.57;100.00;101937.44;4991940;28;20062;-57
2021/06/27 03:06:13;;;;;;;212.23;69.17;;;;;;;14.58;100.00;101928.44;4994518;28;20030;-57
2021/06/27 03:08:38;;;;;;;187.10;62.17;;;;;;;14.59;100.00;101924.81;4993560;28;20295;-56
2021/06/27 03:11:04;;;;;;;192.98;62.15;;;;;;;14.63;100.00;101921.03;4995899;28;20285;-57
2021/06/27 03:13:34;;;;;;;193.00;64.33;;;;;;;14.61;100.00;101920.25;4995344;28;20123;-57
2021/06/27 03:16:00;;;;;;;185.90;59.97;;;;;;;14.62;100.00;101916.63;4994509;28;20296;-58
2021/06/27 03:18:25;;;;;;;212.13;68.25;;;;;;;14.64;100.00;101906.66;4997175;28;20707;-57
2021/06/27 03:20:50;;;;;;;179.88;55.88;;;;;;;14.61;100.00;101911.31;4990795;28;20030;-56
2021/06/27 03:23:16;;;;;;;208.95;68.18;;;;;;;14.60;100.00;101910.44;4995002;28;20045;-58
2021/06/27 03:25:41;;;;;;;219.88;72.43;;;;;;;14.63;100.00;101904.94;4992526;28;20162;-57
2021/06/27 03:28:07;;;;;;;222.70;70.32;;;;;;;14.68;100.00;101908.28;4993425;28;20030;-55
2021/06/27 03:30:32;;;;;;;176.40;61.70;;;;;;;14.67;100.00;101906.53;4993780;28;20050;-57
2021/06/27 03:32:58;;;;;;;192.75;65.10;;;;;;;14.70;100.00;101901.03;4994284;28;20096;-58
2021/06/27 03:35:23;;;;;;;213.55;71.57;;;;;;;14.75;100.00;101899.91;4999205;28;20049;-57
2021/06/27 03:37:55;;;;;;;211.43;71.85;;;;;;;14.80;100.00;101900.53;4994294;28;20022;-57
2021/06/27 03:40:21;;;;;;;210.47;69.00;;;;;;;14.79;100.00;101904.19;4996084;28;20037;-56
2021/06/27 03:42:48;;;;;;;204.57;69.78;;;;;;;14.80;100.00;101897.84;4994143;28;20300;-57
2021/06/27 03:45:14;;;;;;;203.67;68.60;;;;;;;14.83;100.00;101900.38;4993816;28;20050;-58
2021/06/27 03:47:41;;;;;;;198.53;66.73;;;;;;;14.82;100.00;101893.25;4992609;28;20355;-55
2021/06/27 03:50:06;;;;;;;206.57;69.63;;;;;;;14.86;100.00;101895.72;4991578;28;20318;-58
2021/06/27 03:52:32;;;;;;;211.20;71.63;;;;;;;14.91;100.00;101892.78;4991652;28;20297;-55
2021/06/27 03:54:57;;;;;;;196.98;69.95;;;;;;;14.97;100.00;101895.16;4993169;28;20026;-57
2021/06/27 03:57:22;;;;;;;180.85;65.28;;;;;;;15.07;100.00;101892.00;4994007;28;20044;-58
2021/06/27 03:59:48;;;;;;;183.60;68.93;;;;;;;15.13;100.00;101903.28;4993241;28;20082;-57
2021/06/27 04:02:13;;;;;;;169.05;64.53;;;;;;;15.15;100.00;101898.69;4995998;28;20033;-57
2021/06/27 04:04:38;;;;;;;170.98;62.80;;;;;;;15.24;100.00;101899.16;4992419;28;20054;-57
2021/06/27 04:07:04;;;;;;;160.45;60.17;;;;;;;15.32;100.00;101897.81;4993964;28;20175;-57
2021/06/27 04:09:29;;;;;;;149.63;62.65;;;;;;;15.40;100.00;101904.59;4993360;28;20042;-57
2021/06/27 04:11:54;;;;;;;139.18;58.72;;;;;;;15.46;100.00;101897.03;4992916;28;20125;-56
2021/06/27 04:14:20;;;;;;;131.55;58.35;;;;;;;15.47;100.00;101895.25;4994502;28;20034;-56
2021/06/27 04:16:45;;;;;;;120.25;56.35;;;;;;;15.48;100.00;101896.94;4992063;28;20379;-58
2021/06/27 04:19:11;;;;;;;125.93;56.42;;;;;;;15.51;100.00;101889.59;4992793;28;20030;-56
2021/06/27 04:21:36;;;;;;;123.82;57.30;;;;;;;15.51;100.00;101888.72;4992241;28;20148;-56
2021/06/27 04:24:02;;;;;;;112.55;54.55;;;;;;;15.54;100.00;101880.50;4993911;28;20025;-56
2021/06/27 04:26:27;;;;;;;125.93;55.67;;;;;;;15.63;100.00;101882.66;4994089;28;20030;-57
2021/06/27 04:28:52;;;;;;;123.30;56.50;;;;;;;15.70;100.00;101880.50;4987584;28;20680;-55
2021/06/27 04:31:18;;;;;;;114.43;55.50;;;;;;;15.83;100.00;101883.41;4993610;28;20050;-56
2021/06/27 04:33:43;;;;;;;102.70;53.17;;;;;;;15.97;100.00;101878.13;4992535;28;20556;-58
2021/06/27 04:36:08;;;;;;;91.30;50.05;;;;;;;16.10;100.00;101874.72;4994879;28;20029;-55
2021/06/27 04:38:34;;;;;;;87.55;49.22;;;;;;;16.20;100.00;101878.63;4993871;28;20105;-56
2021/06/27 04:40:59;;;;;;;80.53;47.65;;;;;;;16.34;100.00;101874.25;4991067;28;20034;-59
2021/06/27 04:43:25;;;;;;;80.68;48.72;;;;;;;16.57;100.00;101865.69;4990209;28;20109;-57
2021/06/27 04:45:50;;;;;;;73.82;44.72;;;;;;;16.73;99.71;101871.03;4992481;28;20041;-57
2021/06/27 04:48:16;;;;;;;68.82;45.53;;;;;;;16.95;98.65;101864.38;4992366;28;20026;-56
2021/06/27 04:50:41;;;;;;;68.18;41.75;;;;;;;17.25;98.28;101866.97;4992010;28;20054;-55
2021/06/27 04:53:11;;;;;;;59.50;40.08;;;;;;;17.70;96.94;101866.00;4993156;28;20026;-56
2021/06/27 04:55:37;;;;;;;57.97;39.60;;;;;;;18.01;92.69;101870.31;4993209;28;20033;-57
2021/06/27 04:58:02;;;;;;;54.65;38.28;;;;;;;18.31;90.90;101871.06;4990182;28;20307;-57
2021/06/27 05:00:29;;;;;;;54.13;38.80;;;;;;;18.78;89.43;101863.41;4996569;28;20037;-56
2021/06/27 05:02:55;;;;;;;52.17;37.80;;;;;;;19.25;87.25;101861.94;4992428;28;20030;-57
2021/06/27 05:05:20;;;;;;;49.15;36.05;;;;;;;19.12;85.55;101856.53;4995619;28;20987;-58
2021/06/27 05:07:45;;;;;;;;;;;;;;;18.77;86.93;101859.81;4995061;28;20026;-56
2021/06/27 05:10:11;;;;;;;51.37;37.30;;;;;;;18.59;88.34;101864.66;4996547;28;19921;-56
2021/06/27 05:12:36;;;;;;;;;;;;;;;18.41;89.04;101853.25;4995408;28;20037;-58
2021/06/27 05:15:02;;;;;;;50.93;36.93;;;;;;;18.24;88.64;101848.16;4997268;28;20012;-55
2021/06/27 05:17:27;;;;;;;;;;;;;;;18.14;89.23;101853.28;4995063;28;20121;-57
2021/06/27 05:19:52;;;;;;;57.87;36.47;;;;;;;18.05;90.32;101852.06;4996456;28;19921;-57
2021/06/27 05:22:18;;;;;;;54.67;37.58;;;;;;;18.00;90.07;101856.91;5000487;28;20133;-58
2021/06/27 05:24:43;;;;;;;;;;;;;;;17.97;90.97;101854.41;4994086;28;20033;-58
2021/06/27 05:27:08;;;;;;;52.10;37.00;;;;;;;18.06;91.22;101851.09;5014460;28;20782;-58
2021/06/27 05:29:34;;;;;;;54.58;38.85;;;;;;;18.08;90.77;101853.69;4994792;28;20108;-56
2021/06/27 05:32:00;;;;;;;;;;;;;;;18.05;89.80;101849.38;4992666;28;20294;-58
2021/06/27 05:34:27;;;;;;;50.53;37.80;;;;;;;18.07;89.50;101850.13;4991835;28;19981;-57
2021/06/27 05:36:52;;;;;;;51.23;38.57;;;;;;;18.10;89.34;101843.66;4993060;28;20034;-57
2021/06/27 05:39:18;;;;;;;55.55;37.83;;;;;;;18.13;89.48;101843.44;4996914;28;20284;-57
2021/06/27 05:41:43;;;;;;;;;;;;;;;18.10;89.19;101836.41;4994390;28;20052;-56
2021/06/27 05:44:09;;;;;;;52.33;37.60;;;;;;;18.18;89.74;101836.78;4995994;28;19925;-57
2021/06/27 05:46:34;;;;;;;;;;;;;;;18.25;89.03;101839.94;4995425;28;20549;-55
2021/06/27 05:49:02;;;;;;;50.43;34.53;;;;;;;18.32;89.17;101841.25;4995690;28;19991;-58
2021/06/27 05:51:27;;;;;;;53.87;36.73;;;;;;;18.37;88.51;101842.75;4995810;28;20030;-58
2021/06/27 05:53:53;;;;;;;48.95;35.03;;;;;;;18.50;87.97;101836.44;4994618;28;20319;-57
2021/06/27 05:56:19;;;;;;;48.78;35.97;;;;;;;18.53;87.82;101834.50;4997835;28;20122;-58
2021/06/27 05:58:45;;;;;;;48.20;36.47;;;;;;;18.79;87.90;101832.69;4994658;28;20350;-58
2021/06/27 06:01:13;;;;;;;43.50;35.67;;;;;;;19.03;85.51;101840.94;4995040;28;20346;-57
2021/06/27 06:03:39;;;;;;;48.40;34.53;;;;;;;19.28;85.12;101837.34;4995596;28;20521;-57
2021/06/27 06:06:05;;;;;;;43.75;33.88;;;;;;;19.44;83.53;101842.53;4997433;28;20289;-58
2021/06/27 06:08:31;;;;;;;45.60;34.20;;;;;;;19.42;84.14;101841.78;4995488;28;20045;-56
2021/06/27 06:10:57;;;;;;;43.67;34.33;;;;;;;19.42;84.28;101843.63;4991802;28;20285;-58
2021/06/27 06:13:22;;;;;;;;;;;;;;;19.41;85.21;101836.47;4995520;28;20417;-57
2021/06/27 06:15:47;;;;;;;48.97;34.80;;;;;;;19.30;84.80;101835.41;4989081;28;20218;-59
2021/06/27 06:18:14;;;;;;;;;;;;;;;19.23;84.87;101835.97;4996849;28;20358;-56
2021/06/27 06:20:39;;;;;;;46.50;34.73;;;;;;;19.16;84.84;101840.94;4992222;28;19987;-57
2021/06/27 06:23:05;;;;;;;45.83;34.43;;;;;;;19.18;86.19;101838.13;4993592;28;20301;-57
2021/06/27 06:25:30;;;;;;;;;;;;;;;19.29;84.67;101836.38;4996541;28;20029;-57
2021/06/27 06:27:55;;;;;;;47.47;33.87;;;;;;;19.39;84.89;101836.56;4996781;28;19957;-58
2021/06/27 06:30:21;;;;;;;;;;;;;;;19.53;83.48;101845.56;4996081;28;20039;-58
2021/06/27 06:32:46;;;;;;;47.23;34.57;;;;;;;19.56;83.02;101837.19;4992027;28;20487;-57
2021/06/27 06:35:12;;;;;;;;;;;;;;;19.74;82.86;101841.28;4998919;28;20037;-57
2021/06/27 06:37:37;;;;;;;40.17;31.80;;;;;;;19.78;82.40;101837.34;4994838;28;19921;-58
2021/06/27 06:40:06;;;;;;;;;;;;;;;19.82;83.06;101842.53;4995061;28;20588;-58
2021/06/27 06:42:32;;;;;;;42.90;32.23;;;;;;;19.74;82.67;101841.28;5008966;28;19921;-58
2021/06/27 06:44:57;;;;;;;;;;;;;;;19.75;82.60;101843.00;4995231;28;20044;-57
2021/06/27 06:47:23;;;;;;;46.97;33.97;;;;;;;19.75;82.66;101843.00;4993554;28;19917;-58
2021/06/27 06:49:48;;;;;;;;;;;;;;;19.82;83.85;101850.66;4991883;28;20125;-58
2021/06/27 06:52:14;;;;;;;46.73;33.80;;;;;;;19.90;82.49;101835.59;4998132;28;19928;-58
2021/06/27 06:54:39;;;;;;;;;;;;;;;19.94;81.38;101841.66;4992630;28;20116;-57
2021/06/27 06:57:05;;;;;;;38.73;29.47;;;;;;;20.08;81.33;101841.47;4995290;28;19960;-57
2021/06/27 06:59:30;;;;;;;;;;;;;;;20.17;80.05;101842.66;4988920;28;20026;-56
2021/06/27 07:01:55;;;;;;;41.13;32.33;;;;;;;20.13;80.62;101843.00;4996280;28;20369;-58
2021/06/27 07:04:21;;;;;;;;;;;;;;;20.17;80.54;101841.78;4997556;28;20026;-59
2021/06/27 07:06:46;;;;;;;41.70;30.87;;;;;;;20.24;80.02;101838.50;4991123;28;19925;-58
2021/06/27 07:09:11;;;;;;;;;;;;;;;20.37;79.79;101841.13;4996218;28;20034;-56
2021/06/27 07:11:37;;;;;;;41.90;30.40;;;;;;;20.55;78.91;101841.56;4993963;28;20000;-57
2021/06/27 07:14:02;;;;;;;;;;;;;;;20.61;78.25;101837.53;4996006;28;20117;-58
2021/06/27 07:16:28;;;;;;;37.80;30.27;;;;;;;20.89;78.14;101843.53;4991599;28;20408;-57
2021/06/27 07:18:53;;;;;;;38.97;28.83;;;;;;;21.22;78.47;101849.97;4993011;28;20375;-57
2021/06/27 07:21:19;;;;;;;;;;;;;;;21.32;75.53;101836.53;4996974;28;20037;-57
2021/06/27 07:23:44;;;;;;;35.87;28.73;;;;;;;21.33;75.20;101847.25;4992146;28;19963;-58
2021/06/27 07:26:10;;;;;;;35.37;27.47;;;;;;;21.27;75.45;101850.47;4993517;28;20032;-57
2021/06/27 07:28:35;;;;;;;;;;;;;;;21.22;75.53;101849.97;4988409;28;20464;-55
2021/06/27 07:31:01;;;;;;;34.90;28.10;;;;;;;21.07;75.32;101851.19;4994660;28;20326;-56
2021/06/27 07:33:26;;;;;;;34.40;27.37;;;;;;;21.07;76.26;101851.19;4991475;28;20066;-57
2021/06/27 07:35:51;;;;;;;;;;;;;;;21.08;75.79;101851.06;4993742;28;20140;-58
2021/06/27 07:38:17;;;;;;;34.00;28.37;;;;;;;21.00;75.45;101850.81;4991029;28;20424;-57
2021/06/27 07:40:42;;;;;;;;;;;;;;;20.97;76.90;101843.78;4993018;28;20029;-57
2021/06/27 07:43:08;;;;;;;33.03;27.70;;;;;;;20.98;75.61;101850.06;4994269;28;20381;-57
2021/06/27 07:45:33;;;;;;;;;;;;;;;20.89;75.72;101843.53;4994727;28;20033;-57
2021/06/27 07:47:59;;;;;;;36.77;27.73;;;;;;;21.01;76.34;101847.13;5007748;28;19931;-56
2021/06/27 07:50:24;;;;;;;;;;;;;;;21.21;75.33;101850.09;4994672;28;20627;-58
2021/06/27 07:52:50;;;;;;;31.50;26.93;;;;;;;21.02;76.33;101843.44;5007323;28;19921;-58
2021/06/27 07:55:15;;;;;;;;;;;;;;;21.20;75.72;101838.38;4995274;28;20065;-57
2021/06/27 07:57:41;;;;;;;35.13;26.07;;;;;;;21.47;77.69;101837.13;4990252;28;20090;-56
2021/06/27 08:00:08;;;;;;;31.73;25.97;;;;;;;21.53;73.17;101836.66;4994711;28;20101;-57
2021/06/27 08:02:33;;;;;;;33.43;26.30;;;;;;;21.54;72.84;101835.63;5006244;28;20042;-58
2021/06/27 08:04:58;;;;;;;31.80;25.53;;;;;;;21.66;72.26;101840.09;4994959;28;20042;-58
2021/06/27 08:07:24;;;;;;;33.03;25.97;;;;;;;21.97;72.60;101833.97;4993618;28;20198;-57
2021/06/27 08:09:49;;;;;;;31.07;26.07;;;;;;;22.13;71.37;101836.28;4994591;28;20038;-58
2021/06/27 08:12:14;;;;;;;30.97;25.47;;;;;;;22.32;71.14;101845.59;4991360;28;20033;-57
2021/06/27 08:14:40;;;;;;;29.67;24.73;;;;;;;22.35;69.61;101858.94;4991366;28;20034;-57
2021/06/27 08:17:06;;;;;;;;;;;;;;;22.45;68.39;101855.31;4997202;28;20125;-58
2021/06/27 08:19:32;;;;;;;31.48;25.60;;;;;;;22.81;68.52;101860.44;4988399;28;19921;-58
2021/06/27 08:21:57;;;;;;;27.97;23.53;;;;;;;23.13;66.83;101855.91;4993946;28;20029;-58
2021/06/27 08:24:23;;;;;;;30.80;25.67;;;;;;;23.86;69.11;101856.63;4993257;28;20018;-58
2021/06/27 08:26:50;;;;;;;28.80;24.77;;;;;;;24.61;61.72;101856.13;4994742;28;20073;-57
2021/06/27 08:29:16;;;;;;;27.30;23.27;;;;;;;25.17;59.51;101855.44;4994458;28;20497;-56
2021/06/27 08:31:41;;;;;;;25.70;22.80;;;;;;;25.79;60.87;101846.69;4992479;28;20131;-58
2021/06/27 08:34:07;;;;;;;28.87;23.57;;;;;;;26.44;55.18;101851.97;4994511;28;21309;-58
2021/06/27 08:36:32;;;;;;;25.57;21.73;;;;;;;26.52;56.02;101856.66;4987935;28;20057;-59
2021/06/27 08:38:57;;;;;;;25.17;21.63;;;;;;;26.78;55.14;101856.72;4993778;28;20032;-58
2021/06/27 08:41:23;;;;;;;25.63;22.50;;;;;;;26.39;52.88;101852.47;4991958;28;20038;-57
2021/06/27 08:43:48;;;;;;;24.73;22.23;;;;;;;26.18;53.50;101843.72;4990411;28;20097;-57
2021/06/27 08:46:14;;;;;;;27.47;23.27;;;;;;;26.61;53.93;101844.75;4987570;28;20504;-59
2021/06/27 08:48:41;;;;;;;27.10;22.13;;;;;;;27.16;53.86;101843.59;4984878;28;20369;-59
2021/06/27 08:51:08;;;;;;;26.67;23.87;;;;;;;26.37;52.48;101840.81;4990653;28;20037;-58
2021/06/27 08:53:34;;;;;;;26.53;22.73;;;;;;;26.32;54.88;101842.31;4985044;28;20033;-58
2021/06/27 08:56:06;;;;;;;27.67;23.00;;;;;;;26.10;53.71;101833.53;4985488;28;20437;-57
2021/06/27 08:58:38;;;;;;;28.73;22.97;;;;;;;25.95;54.17;101830.47;4985764;28;20065;-58
2021/06/27 09:01:06;;;;;;;23.37;20.87;;;;;;;25.75;58.19;101830.59;4987327;28;20025;-59
2021/06/27 09:03:32;;;;;;;24.07;20.97;;;;;;;25.68;56.67;101820.44;4989644;28;20048;-58
2021/06/27 09:05:58;;;;;;;27.80;23.63;;;;;;;25.35;54.78;101826.34;4987601;28;20557;-58
2021/06/27 09:08:23;;;;;;;28.17;23.10;;;;;;;25.20;60.67;101830.59;5000756;28;20062;-57
2021/06/27 09:10:49;;;;;;;25.10;22.37;;;;;;;25.22;55.16;101823.06;4977959;28;20121;-57
2021/06/27 09:13:14;;;;;;;27.67;23.37;;;;;;;25.17;55.76;101817.22;4984204;28;20399;-58
2021/06/27 09:15:41;;;;;;;29.43;23.10;;;;;;;25.13;56.01;101811.19;4984224;28;20041;-58
2021/06/27 09:18:09;;;;;;;24.87;21.83;;;;;;;24.95;58.04;101813.84;4975649;28;20437;-59
2021/06/27 09:20:36;;;;;;;27.77;23.23;;;;;;;25.28;56.44;101809.69;4977595;28;20018;-58
2021/06/27 09:23:01;;;;;;;29.97;21.53;;;;;;;25.27;57.68;101802.50;4987477;28;20564;-58
2021/06/27 09:25:29;;;;;;;27.03;21.73;;;;;;;25.58;54.90;101804.97;4984158;28;20035;-57
2021/06/27 09:28:00;;;;;;;23.70;20.73;;;;;;;25.79;56.53;101800.22;4982952;28;20381;-58
2021/06/27 09:30:26;;;;;;;25.23;20.97;;;;;;;25.47;56.11;101798.84;4985428;28;20422;-57
2021/06/27 09:32:56;;;;;;;23.77;20.97;;;;;;;25.10;57.73;101795.97;4983238;28;20376;-57
2021/06/27 09:35:40;;;;;;;23.67;19.70;;;;;;;24.83;55.74;101794.06;4987901;28;20048;-58
2021/06/27 09:38:29;;;;;;;26.00;22.53;;;;;;;24.50;60.24;101798.97;4989493;28;20533;-58
2021/06/27 09:41:00;;;;;;;23.60;21.10;;;;;;;24.31;59.78;101802.59;4992180;28;20196;-58
2021/06/27 09:43:27;;;;;;;26.00;23.17;;;;;;;24.17;57.74;101795.72;4989175;28;20449;-58
2021/06/27 09:46:01;;;;;;;30.37;22.70;;;;;;;23.92;59.24;101795.25;4993856;28;20038;-58
2021/06/27 09:48:27;;;;;;;26.07;21.00;;;;;;;23.77;60.48;101797.53;4990616;28;20233;-58
2021/06/27 09:50:53;;;;;;;29.27;21.97;;;;;;;23.82;60.88;101797.97;5006334;28;20052;-57
2021/06/27 09:53:35;;;;;;;27.67;22.73;;;;;;;23.95;61.96;101792.25;4991764;28;20231;-58
2021/06/27 09:56:02;;;;;;;27.90;22.80;;;;;;;23.96;59.84;101793.13;4990193;28;20041;-57
2021/06/27 09:58:27;;;;;;;26.27;23.13;;;;;;;24.06;59.55;101798.59;4995029;28;20013;-58
2021/06/27 10:00:53;;;;;;;26.57;22.33;;;;;;;24.23;58.94;101786.09;4991940;28;20049;-58
2021/06/27 10:03:18;;;;;;;30.33;21.67;;;;;;;24.76;58.16;101785.59;4990672;28;20034;-58
2021/06/27 10:05:44;;;;;;;27.80;23.37;;;;;;;25.15;55.67;101781.00;4992175;28;20030;-59
2021/06/27 10:08:26;;;;;;;25.97;21.60;;;;;;;25.50;54.85;101782.16;4990805;28;20133;-56
2021/06/27 10:11:13;;;;;;;28.77;23.37;;;;;;;25.18;55.17;101776.09;4990685;28;20524;-60
2021/06/27 10:13:50;;;;;;;25.97;22.00;;;;;;;25.43;55.65;101779.16;4993170;28;20425;-59
2021/06/27 10:16:23;;;;;;;31.23;22.97;;;;;;;25.44;54.73;101776.28;4988287;28;20033;-58
2021/06/27 10:18:49;;;;;;;27.43;22.53;;;;;;;25.33;55.21;101781.94;4992798;28;20544;-58
2021/06/27 10:21:15;;;;;;;28.00;22.80;;;;;;;25.42;55.93;101778.31;4996676;28;20025;-58
2021/06/27 10:23:40;;;;;;;26.87;22.23;;;;;;;25.35;56.89;101776.31;4989026;28;20061;-58
2021/06/27 10:26:06;;;;;;;25.87;22.53;;;;;;;25.32;55.72;101773.91;4993601;28;20737;-58
2021/06/27 10:28:33;;;;;;;26.13;23.37;;;;;;;25.55;57.71;101777.09;4991108;28;20083;-58
2021/06/27 10:30:59;;;;;;;24.93;20.77;;;;;;;25.63;55.41;101768.97;4995184;28;20054;-57
2021/06/27 10:33:25;;;;;;;26.43;21.27;;;;;;;25.14;54.72;101758.31;4987149;28;20037;-59
2021/06/27 10:35:52;;;;;;;24.00;20.10;;;;;;;25.05;57.44;101761.94;4993778;28;20038;-58
2021/06/27 10:38:25;;;;;;;24.37;21.03;;;;;;;25.35;56.04;101757.19;4992485;28;20117;-57
2021/06/27 10:40:51;;;;;;;27.30;22.87;;;;;;;25.39;53.55;101762.22;4992588;28;20030;-58
2021/06/27 10:43:16;;;;;;;24.23;18.43;;;;;;;25.63;56.98;101760.78;4996790;28;20034;-59
2021/06/27 10:45:48;;;;;;;26.07;22.63;;;;;;;25.49;55.27;101761.31;4992153;28;20025;-59
2021/06/27 10:48:32;;;;;;;26.00;23.23;;;;;;;24.89;56.31;101760.72;4992510;28;20030;-59
2021/06/27 10:51:01;;;;;;;24.30;19.70;;;;;;;25.25;57.08;101749.91;4993691;28;20041;-58
2021/06/27 10:53:27;;;;;;;25.70;21.70;;;;;;;25.53;55.27;101746.31;4992161;28;20045;-58
2021/06/27 10:55:58;;;;;;;24.07;19.83;;;;;;;25.63;54.99;101746.28;4989804;28;20026;-59
2021/06/27 10:58:38;;;;;;;23.57;20.43;;;;;;;25.95;55.07;101748.47;4990829;28;20033;-59
2021/06/27 11:01:10;;;;;;;25.43;20.20;;;;;;;26.11;58.26;101750.50;4991878;28;20105;-59
2021/06/27 11:03:40;;;;;;;28.20;20.67;;;;;;;26.09;53.34;101740.72;4989958;28;20079;-58
2021/06/27 11:06:18;;;;;;;25.80;21.27;;;;;;;25.50;54.43;101738.44;4994157;28;20044;-58
2021/06/27 11:08:47;;;;;;;24.57;19.83;;;;;;;25.81;56.15;101738.06;4990988;28;20061;-58